Time;durP1;ratioP1;P1;durP2;ratioP2;P2;SDS_P1;SDS_P2;PMS_P1;PMS_P2;Temp;Humidity;BMP_temperature;BMP_pressure;BME280_temperature;BME280_humidity;BME280_pressure;Samples;Min_cycle;Max_cycle;Signal;HPM_P1;HPM_P2
2021/10/21 00:00:27;;;;;;;11.77;4.03;;;;;;;18.93;56.16;98129.53;5032069;28;20104;-48
2021/10/21 00:02:56;;;;;;;3.83;1.67;;;;;;;19.09;55.05;98145.44;5048483;28;20113;-48
2021/10/21 00:05:22;;;;;;;6.03;1.60;;;;;;;18.98;55.02;98131.38;5031954;28;20036;-48
2021/10/21 00:07:48;;;;;;;9.80;4.32;;;;;;;18.90;55.97;98146.00;5033184;28;20026;-48
2021/10/21 00:10:14;;;;;;;8.52;2.80;;;;;;;18.98;55.52;98107.44;5033160;28;20025;-49
2021/10/21 00:12:41;;;;;;;12.73;3.72;;;;;;;18.94;55.21;98141.75;5031847;28;20376;-49
2021/10/21 00:15:09;;;;;;;13.05;3.28;;;;;;;18.78;55.44;98126.84;5033077;28;20037;-49
2021/10/21 00:17:36;;;;;;;18.10;3.75;;;;;;;18.75;55.77;98124.69;5048369;28;20032;-49
2021/10/21 00:20:06;;;;;;;10.00;2.83;;;;;;;18.82;55.52;98122.63;5033009;28;20026;-48
2021/10/21 00:22:32;;;;;;;9.65;2.90;;;;;;;18.80;55.70;98148.66;5033222;28;20021;-48
2021/10/21 00:24:58;;;;;;;4.53;1.60;;;;;;;18.79;55.43;98071.81;5032978;28;20025;-49
2021/10/21 00:27:24;;;;;;;6.32;2.40;;;;;;;18.86;55.45;98168.09;5032829;28;20060;-48
2021/10/21 00:29:49;;;;;;;7.57;3.35;;;;;;;18.91;55.12;98199.97;5032837;28;20026;-48
2021/10/21 00:32:18;;;;;;;14.38;3.90;;;;;;;18.81;55.51;98073.16;5032796;28;20022;-48
2021/10/21 00:34:44;;;;;;;9.27;2.30;;;;;;;18.79;55.80;98155.03;5032796;28;20044;-48
2021/10/21 00:37:09;;;;;;;10.77;3.78;;;;;;;18.75;56.05;98051.09;5032710;28;20033;-48
2021/10/21 00:39:35;;;;;;;5.47;1.90;;;;;;;18.73;56.20;98142.78;5032733;28;20068;-48
2021/10/21 00:42:01;;;;;;;4.85;1.88;;;;;;;18.70;56.51;98241.69;5032655;28;20607;-48
2021/10/21 00:44:26;;;;;;;2.58;1.48;;;;;;;18.61;56.73;98164.31;5031305;28;20029;-49
2021/10/21 00:46:52;;;;;;;2.90;1.27;;;;;;;18.56;57.34;98146.50;5032563;28;20021;-49
2021/10/21 00:49:18;;;;;;;5.97;2.80;;;;;;;18.54;57.37;98172.56;5047580;28;20052;-48
2021/10/21 00:51:44;;;;;;;3.00;1.77;;;;;;;18.44;57.70;98124.72;5031220;28;20033;-48
2021/10/21 00:54:11;;;;;;;5.95;3.30;;;;;;;18.42;58.96;98187.16;5031099;28;20032;-48
2021/10/21 00:56:37;;;;;;;4.10;1.90;;;;;;;18.26;59.22;98194.31;5031078;28;20387;-47
2021/10/21 00:59:04;;;;;;;5.55;1.70;;;;;;;18.06;60.81;98174.59;5047586;28;20037;-48
2021/10/21 01:01:32;;;;;;;4.20;2.20;;;;;;;17.85;61.57;98210.91;5032198;28;20021;-48
2021/10/21 01:03:59;;;;;;;4.85;1.58;;;;;;;17.50;62.52;98230.06;5032142;28;20079;-48
2021/10/21 01:06:26;;;;;;;3.30;1.77;;;;;;;17.31;62.98;98240.28;5032112;28;20361;-49
2021/10/21 01:08:52;;;;;;;3.10;1.50;;;;;;;17.20;62.89;98265.13;5032226;28;20120;-51
2021/10/21 01:11:18;;;;;;;2.05;1.38;;;;;;;17.06;64.08;98264.75;5030739;28;20029;-51
2021/10/21 01:13:44;;;;;;;5.38;2.30;;;;;;;17.03;64.28;98270.56;5032058;28;20036;-51
2021/10/21 01:16:12;;;;;;;2.85;1.67;;;;;;;16.95;64.84;98254.06;5046703;28;20559;-52
2021/10/21 01:18:40;;;;;;;6.05;2.45;;;;;;;16.71;66.81;98295.97;5032010;28;20093;-50
2021/10/21 01:21:08;;;;;;;4.85;2.20;;;;;;;16.55;67.64;98324.13;5032173;28;20399;-49
2021/10/21 01:23:35;;;;;;;2.15;1.63;;;;;;;16.27;68.68;98333.06;5031988;28;20030;-50
2021/10/21 01:26:01;;;;;;;6.80;2.58;;;;;;;15.94;70.84;98318.09;5031862;28;20112;-49
2021/10/21 01:28:27;;;;;;;5.05;2.50;;;;;;;15.80;71.69;98343.31;5031840;28;20057;-49
2021/10/21 01:30:53;;;;;;;4.80;2.42;;;;;;;15.78;72.71;98332.97;5031824;28;20026;-49
2021/10/21 01:33:18;;;;;;;4.93;2.75;;;;;;;15.69;72.43;98353.69;5031762;28;20034;-50
2021/10/21 01:35:45;;;;;;;3.60;1.98;;;;;;;15.53;72.63;98386.22;5047074;28;20030;-51
2021/10/21 01:38:10;;;;;;;4.20;2.20;;;;;;;15.46;72.71;98357.31;5031722;28;20492;-50
2021/10/21 01:40:36;;;;;;;2.20;1.52;;;;;;;15.53;71.80;98386.22;5031730;28;20108;-50
2021/10/21 01:43:04;;;;;;;4.72;1.73;;;;;;;15.53;70.74;98386.22;5031732;28;20021;-51
2021/10/21 01:45:32;;;;;;;4.07;1.75;;;;;;;15.56;69.63;98396.34;5031723;28;20022;-50
2021/10/21 01:48:01;;;;;;;3.38;1.50;;;;;;;15.55;70.56;98400.84;5046943;28;20112;-51
2021/10/21 01:50:29;;;;;;;2.65;1.25;;;;;;;15.59;69.66;98387.91;5045348;28;20041;-51
2021/10/21 01:52:56;;;;;;;4.50;1.60;;;;;;;15.41;71.55;98402.16;5033618;28;20104;-50
2021/10/21 01:55:22;;;;;;;5.25;1.80;;;;;;;15.10;72.39;98396.34;5033552;28;20491;-49
2021/10/21 01:57:47;;;;;;;9.10;2.17;;;;;;;14.70;75.30;98417.50;5051511;28;20070;-50
2021/10/21 02:00:16;;;;;;;4.03;2.38;;;;;;;14.43;76.19;98388.13;5050249;28;20070;-51
2021/10/21 02:02:44;;;;;;;3.65;2.10;;;;;;;14.36;77.33;98373.22;5033616;28;20391;-51
2021/10/21 02:05:10;;;;;;;2.70;2.08;;;;;;;14.31;77.95;98327.44;5051384;28;20029;-50
2021/10/21 02:07:36;;;;;;;11.43;2.58;;;;;;;14.37;77.68;98397.78;5051251;28;20135;-51
2021/10/21 02:10:07;;;;;;;2.83;1.55;;;;;;;14.51;76.29;98369.31;5033439;28;20048;-51
2021/10/21 02:12:33;;;;;;;4.82;2.38;;;;;;;14.73;75.83;98365.00;5033447;28;20067;-51
2021/10/21 02:14:59;;;;;;;1.95;1.40;;;;;;;14.95;74.57;98383.66;5051288;28;20044;-52
2021/10/21 02:17:25;;;;;;;2.63;2.13;;;;;;;15.22;73.13;98372.50;5033382;28;20408;-50
2021/10/21 02:19:52;;;;;;;3.00;1.88;;;;;;;15.48;71.31;98399.38;5051300;28;20036;-50
2021/10/21 02:22:19;;;;;;;3.72;2.20;;;;;;;15.82;69.95;98376.41;5051448;28;20021;-49
2021/10/21 02:24:45;;;;;;;7.13;2.15;;;;;;;16.09;69.03;98386.31;5033351;28;20028;-50
2021/10/21 02:27:11;;;;;;;4.38;1.98;;;;;;;16.34;67.89;98336.34;5035102;28;20025;-51
2021/10/21 02:29:37;;;;;;;4.78;1.60;;;;;;;16.49;67.56;98372.81;5055023;28;20494;-50
2021/10/21 02:32:03;;;;;;;6.80;2.10;;;;;;;16.60;66.95;98404.72;5054947;28;20067;-51
2021/10/21 02:34:29;;;;;;;2.30;1.52;;;;;;;16.64;66.62;98414.59;5054943;28;20020;-51
2021/10/21 02:36:54;;;;;;;3.83;1.67;;;;;;;16.76;66.35;98380.00;5054904;28;20554;-51
2021/10/21 02:39:20;;;;;;;2.60;1.67;;;;;;;16.78;65.48;98397.28;5054880;28;20507;-52
2021/10/21 02:41:46;;;;;;;4.50;1.85;;;;;;;16.73;66.59;98388.47;5053472;28;20114;-50
2021/10/21 02:44:12;;;;;;;2.90;1.73;;;;;;;16.73;66.56;98399.06;5036856;28;20390;-51
2021/10/21 02:46:37;;;;;;;3.55;1.83;;;;;;;16.76;66.72;98403.84;5036687;28;20021;-50
2021/10/21 02:49:04;;;;;;;3.05;1.65;;;;;;;16.91;66.03;98451.78;5054419;28;20397;-49
2021/10/21 02:51:30;;;;;;;5.47;1.73;;;;;;;17.04;65.53;98433.88;5036812;28;20112;-51
2021/10/21 02:53:56;;;;;;;4.95;1.65;;;;;;;17.06;65.07;98434.44;5054582;28;20104;-51
2021/10/21 02:56:21;;;;;;;4.88;1.75;;;;;;;17.07;66.28;98449.31;5053234;28;20058;-50
2021/10/21 02:58:47;;;;;;;4.55;1.40;;;;;;;16.88;66.96;98464.72;5054524;28;20059;-51
2021/10/21 03:01:13;;;;;;;5.65;2.63;;;;;;;16.47;70.00;98488.81;5054366;28;20040;-50
2021/10/21 03:03:40;;;;;;;3.45;2.08;;;;;;;16.18;71.50;98511.97;5054418;28;20112;-50
2021/10/21 03:06:05;;;;;;;2.00;1.60;;;;;;;15.85;72.92;98539.19;5054324;28;20016;-52
2021/10/21 03:08:31;;;;;;;4.97;1.92;;;;;;;15.58;73.84;98513.28;5036299;28;20522;-50
2021/10/21 03:10:57;;;;;;;3.22;1.80;;;;;;;15.43;74.86;98505.84;5054237;28;20502;-51
2021/10/21 03:13:22;;;;;;;3.60;1.83;;;;;;;15.47;75.42;98514.94;5054206;28;20024;-51
2021/10/21 03:15:48;;;;;;;3.90;1.77;;;;;;;15.51;75.01;98520.56;5036245;28;20024;-51
2021/10/21 03:18:14;;;;;;;6.20;2.33;;;;;;;15.40;74.87;98535.44;5054127;28;20510;-50
2021/10/21 03:20:39;;;;;;;8.27;2.95;;;;;;;15.35;75.69;98536.16;5036374;28;20475;-51
2021/10/21 03:23:05;;;;;;;4.85;2.63;;;;;;;15.27;75.80;98538.34;5054013;28;20483;-50
2021/10/21 03:25:34;;;;;;;9.00;2.50;;;;;;;15.25;76.94;98530.66;5036041;28;20502;-49
2021/10/21 03:27:59;;;;;;;7.40;1.92;;;;;;;15.42;77.26;98529.91;5053838;28;20451;-49
2021/10/21 03:30:25;;;;;;;4.55;2.65;;;;;;;15.52;76.33;98503.66;5035985;28;20111;-48
2021/10/21 03:32:51;;;;;;;6.60;2.65;;;;;;;15.47;75.42;98548.50;5053816;28;20483;-49
2021/10/21 03:35:16;;;;;;;10.25;2.63;;;;;;;15.33;75.60;98532.09;5053806;28;20025;-51
2021/10/21 03:37:42;;;;;;;4.40;1.95;;;;;;;15.20;76.25;98529.75;5053351;28;20116;-50
2021/10/21 03:40:10;;;;;;;5.47;2.10;;;;;;;15.16;76.42;98522.28;5053368;28;20474;-50
2021/10/21 03:42:37;;;;;;;3.67;2.28;;;;;;;15.41;76.68;98517.72;5053704;28;20020;-49
2021/10/21 03:45:04;;;;;;;5.53;2.03;;;;;;;15.63;74.73;98526.59;5053582;28;20057;-51
2021/10/21 03:47:30;;;;;;;2.38;1.90;;;;;;;15.79;74.66;98535.63;5053428;28;20024;-51
2021/10/21 03:49:55;;;;;;;6.30;1.95;;;;;;;15.90;72.85;98513.63;5053233;28;20048;-51
2021/10/21 03:52:21;;;;;;;3.22;1.85;;;;;;;15.92;72.63;98518.69;5053430;28;20017;-51
2021/10/21 03:54:48;;;;;;;5.20;1.60;;;;;;;15.99;72.06;98524.59;5053344;28;20067;-51
2021/10/21 03:57:14;;;;;;;1.77;1.60;;;;;;;15.97;72.36;98527.47;5035447;28;20021;-52
2021/10/21 03:59:40;;;;;;;4.07;1.83;;;;;;;16.04;72.80;98535.28;5053397;28;20513;-52
2021/10/21 04:02:06;;;;;;;5.63;2.05;;;;;;;16.11;72.96;98527.19;5035354;28;20052;-51
2021/10/21 04:04:32;;;;;;;13.70;2.42;;;;;;;16.18;71.68;98533.94;5053169;28;20029;-52
2021/10/21 04:06:58;;;;;;;3.35;1.50;;;;;;;16.38;72.23;98548.53;5053114;28;20028;-50
2021/10/21 04:09:24;;;;;;;4.07;1.70;;;;;;;16.56;70.90;98548.28;5053179;28;20032;-51
2021/10/21 04:11:50;;;;;;;2.53;1.70;;;;;;;16.54;71.15;98552.19;5035107;28;20104;-51
2021/10/21 04:14:18;;;;;;;4.20;1.80;;;;;;;16.64;71.10;98554.22;5053130;28;20131;-51
2021/10/21 04:16:44;;;;;;;6.57;2.13;;;;;;;16.76;70.88;98555.72;5035090;28;20025;-51
2021/10/21 04:19:10;;;;;;;2.47;1.50;;;;;;;16.90;69.58;98560.69;5034991;28;20036;-50
2021/10/21 04:21:35;;;;;;;5.15;1.77;;;;;;;16.83;69.46;98552.94;5035005;28;20046;-51
2021/10/21 04:24:01;;;;;;;6.05;2.28;;;;;;;16.84;69.72;98562.50;5034952;28;20036;-51
2021/10/21 04:26:27;;;;;;;3.65;1.73;;;;;;;16.89;68.29;98567.06;5034907;28;20028;-50
2021/10/21 04:28:53;;;;;;;8.77;3.67;;;;;;;16.88;69.07;98571.56;5034832;28;20048;-50
2021/10/21 04:31:19;;;;;;;5.32;1.58;;;;;;;17.03;69.15;98586.06;5052746;28;20090;-50
2021/10/21 04:33:44;;;;;;;3.38;1.80;;;;;;;17.06;69.30;98593.53;5052726;28;20025;-50
2021/10/21 04:36:10;;;;;;;5.97;2.40;;;;;;;17.11;69.75;98602.34;5034735;28;20032;-50
2021/10/21 04:38:36;;;;;;;9.45;2.90;;;;;;;17.33;69.99;98613.00;5052658;28;20032;-50
2021/10/21 04:41:02;;;;;;;6.93;2.75;;;;;;;17.59;69.49;98626.56;5052547;28;20040;-50
2021/10/21 04:43:28;;;;;;;4.97;1.77;;;;;;;17.76;68.33;98624.63;5052582;28;20407;-50
2021/10/21 04:45:53;;;;;;;11.45;4.35;;;;;;;17.87;68.46;98616.84;5052730;28;20061;-50
2021/10/21 04:48:19;;;;;;;7.57;2.42;;;;;;;18.16;68.14;98615.50;5052433;28;20537;-50
2021/10/21 04:50:45;;;;;;;8.30;2.72;;;;;;;18.36;67.45;98616.75;5030129;28;20053;-50
2021/10/21 04:53:11;;;;;;;4.60;1.85;;;;;;;18.51;66.59;98624.88;5032442;28;20076;-50
2021/10/21 04:55:36;;;;;;;4.63;2.30;;;;;;;18.39;65.52;98632.22;5031076;28;20378;-49
2021/10/21 04:58:05;;;;;;;2.58;1.52;;;;;;;18.10;65.19;98613.06;5032378;28;20025;-50
2021/10/21 05:00:32;;;;;;;5.85;1.63;;;;;;;17.89;65.92;98626.16;5032281;28;20116;-50
2021/10/21 05:03:06;;;;;;;5.72;3.20;;;;;;;17.96;66.87;98636.56;5032196;28;20057;-49
2021/10/21 05:05:32;;;;;;;5.75;2.60;;;;;;;18.16;67.05;98631.44;5032266;28;20522;-50
2021/10/21 05:07:57;;;;;;;3.50;2.28;;;;;;;18.28;66.56;98633.16;5032155;28;20021;-51
2021/10/21 05:10:23;;;;;;;4.90;1.70;;;;;;;18.13;66.15;98639.94;5030863;28;20129;-51
2021/10/21 05:12:49;;;;;;;2.70;1.65;;;;;;;17.94;66.48;98643.97;5032162;28;20036;-50
2021/10/21 05:15:14;;;;;;;4.03;1.75;;;;;;;17.79;66.92;98652.56;5032409;28;20025;-50
2021/10/21 05:17:40;;;;;;;4.78;1.60;;;;;;;17.67;66.89;98647.38;5047375;28;20041;-50
2021/10/21 05:20:06;;;;;;;2.80;1.83;;;;;;;17.60;67.07;98651.25;5032031;28;20029;-51
2021/10/21 05:22:36;;;;;;;5.50;1.88;;;;;;;17.66;67.44;98651.06;5032025;28;20032;-50
2021/10/21 05:25:01;;;;;;;5.78;2.33;;;;;;;17.86;67.05;98663.00;5047246;28;20030;-49
2021/10/21 05:27:27;;;;;;;5.15;2.38;;;;;;;17.93;66.88;98664.41;5030581;28;20519;-50
2021/10/21 05:29:53;;;;;;;4.75;1.40;;;;;;;17.87;66.08;98656.66;5031898;28;20087;-50
2021/10/21 05:32:19;;;;;;;2.15;1.40;;;;;;;17.71;66.03;98653.00;5030880;28;20036;-50
2021/10/21 05:34:45;;;;;;;5.10;1.85;;;;;;;17.58;66.72;98651.50;5031888;28;20395;-50
2021/10/21 05:37:12;;;;;;;4.45;1.50;;;;;;;17.45;66.71;98655.31;5031890;28;20104;-50
2021/10/21 05:39:38;;;;;;;5.53;1.70;;;;;;;17.31;66.26;98657.53;5031864;28;20547;-50
2021/10/21 05:42:03;;;;;;;8.93;2.97;;;;;;;17.17;66.77;98661.56;5030494;28;20121;-50
2021/10/21 05:44:30;;;;;;;6.07;2.53;;;;;;;17.13;66.85;98671.88;5031784;28;20021;-50
2021/10/21 05:46:56;;;;;;;8.80;3.55;;;;;;;17.10;66.82;98671.53;5031619;28;20369;-51
2021/10/21 05:49:22;;;;;;;6.05;2.67;;;;;;;17.14;67.23;98670.00;5036324;28;20122;-51
2021/10/21 05:51:48;;;;;;;8.80;2.67;;;;;;;17.47;67.20;98671.00;5051504;28;20518;-50
2021/10/21 05:54:14;;;;;;;5.07;1.73;;;;;;;17.73;66.21;98675.56;5051727;28;20025;-50
2021/10/21 05:56:40;;;;;;;3.42;1.63;;;;;;;17.86;66.04;98676.28;5033648;28;20426;-50
2021/10/21 05:59:06;;;;;;;6.80;2.22;;;;;;;17.92;65.72;98683.25;5051419;28;20507;-50
2021/10/21 06:01:32;;;;;;;10.10;2.08;;;;;;;18.06;65.53;98695.09;5034490;28;20021;-50
2021/10/21 06:04:00;;;;;;;3.60;1.67;;;;;;;18.14;64.89;98696.50;5055510;28;20021;-50
2021/10/21 06:06:26;;;;;;;6.35;1.90;;;;;;;18.11;64.82;98692.50;5055506;28;20025;-50
2021/10/21 06:08:52;;;;;;;7.95;2.67;;;;;;;18.04;64.99;98694.53;5055282;28;20056;-50
2021/10/21 06:11:18;;;;;;;2.47;1.13;;;;;;;18.01;64.74;98705.69;5055439;28;20036;-51
2021/10/21 06:13:43;;;;;;;6.65;1.58;;;;;;;17.84;64.77;98724.31;5055359;28;20387;-51
2021/10/21 06:16:09;;;;;;;3.63;1.67;;;;;;;17.66;65.06;98714.75;5055327;28;20053;-51
2021/10/21 06:18:36;;;;;;;4.70;1.20;;;;;;;17.50;65.04;98716.41;5055271;28;20029;-51
2021/10/21 06:21:07;;;;;;;3.15;1.15;;;;;;;17.34;65.00;98719.88;5055146;28;20047;-50
2021/10/21 06:23:34;;;;;;;4.25;2.08;;;;;;;17.15;65.13;98720.16;5055253;28;20032;-51
2021/10/21 06:26:00;;;;;;;6.00;1.90;;;;;;;17.01;64.52;98726.84;5053907;28;20021;-51
2021/10/21 06:28:26;;;;;;;10.80;2.83;;;;;;;17.08;64.30;98731.97;5055054;28;20032;-50
2021/10/21 06:30:51;;;;;;;11.00;2.50;;;;;;;17.30;63.54;98740.78;5054971;28;20095;-51
2021/10/21 06:33:17;;;;;;;7.00;2.63;;;;;;;17.44;62.82;98740.47;5037112;28;20028;-50
2021/10/21 06:35:45;;;;;;;26.17;3.63;;;;;;;17.70;61.43;98746.94;5036984;28;20041;-51
2021/10/21 06:38:14;;;;;;;27.90;3.55;;;;;;;17.98;59.39;98748.66;5036990;28;20029;-51
2021/10/21 06:40:39;;;;;;;36.15;5.03;;;;;;;18.28;58.22;98750.06;5054843;28;20025;-51
2021/10/21 06:43:05;;;;;;;20.65;2.85;;;;;;;18.60;57.21;98752.78;5054808;28;20017;-52
2021/10/21 06:45:33;;;;;;;10.77;2.15;;;;;;;18.67;57.97;98744.59;5054748;28;20407;-51
2021/10/21 06:48:02;;;;;;;13.27;3.33;;;;;;;18.70;58.94;98752.88;5054706;28;20025;-51
2021/10/21 06:50:28;;;;;;;32.92;4.93;;;;;;;18.97;58.68;98744.09;5054427;28;20445;-51
2021/10/21 06:52:54;;;;;;;17.45;2.55;;;;;;;19.35;58.20;98750.22;5036669;28;20028;-51
2021/10/21 06:55:21;;;;;;;10.90;2.25;;;;;;;19.34;57.48;98751.31;5054544;28;20411;-51
2021/10/21 06:57:47;;;;;;;16.13;3.88;;;;;;;19.23;58.08;98749.63;5054531;28;20109;-51
2021/10/21 07:00:15;;;;;;;7.15;1.98;;;;;;;19.32;56.89;98758.75;5054752;28;20032;-51
2021/10/21 07:02:41;;;;;;;13.15;3.08;;;;;;;19.04;56.64;98757.19;5020091;28;20544;-52
2021/10/21 07:05:08;;;;;;;11.27;1.90;;;;;;;18.75;57.45;98771.56;5054287;28;20059;-51
2021/10/21 07:07:34;;;;;;;14.52;3.45;;;;;;;18.53;58.32;98776.09;5054331;28;20078;-50
2021/10/21 07:10:00;;;;;;;14.45;2.80;;;;;;;18.44;58.12;98778.41;5054304;28;20429;-51
2021/10/21 07:12:26;;;;;;;20.02;3.30;;;;;;;18.32;58.27;98783.03;5053951;28;20025;-51
2021/10/21 07:14:52;;;;;;;12.20;2.35;;;;;;;18.38;58.00;98781.25;5053471;28;20052;-51
2021/10/21 07:17:18;;;;;;;9.15;1.60;;;;;;;18.16;58.67;98780.19;5036277;28;20127;-51
2021/10/21 07:19:48;;;;;;;10.80;2.50;;;;;;;18.05;58.41;98781.16;5054136;28;20441;-51
2021/10/21 07:22:14;;;;;;;9.57;2.55;;;;;;;18.15;58.75;98781.25;5054036;28;20029;-51
2021/10/21 07:24:40;;;;;;;8.30;2.90;;;;;;;18.32;58.76;98794.47;5054029;28;20043;-51
2021/10/21 07:27:06;;;;;;;16.17;3.40;;;;;;;18.40;58.32;98781.81;5036003;28;20070;-51
2021/10/21 07:29:31;;;;;;;20.40;4.22;;;;;;;18.53;57.68;98784.88;5036016;28;20040;-50
2021/10/21 07:31:57;;;;;;;14.18;4.35;;;;;;;18.79;56.72;98781.66;5036037;28;20223;-50
2021/10/21 07:34:23;;;;;;;22.33;3.92;;;;;;;18.91;55.85;98782.34;5053871;28;20111;-51
2021/10/21 07:36:48;;;;;;;12.13;2.45;;;;;;;18.95;55.18;98784.25;5053747;28;20025;-51
2021/10/21 07:39:15;;;;;;;13.38;3.15;;;;;;;18.94;54.46;98782.66;5053757;28;20025;-51
2021/10/21 07:41:42;;;;;;;16.35;6.63;;;;;;;18.83;55.32;98786.25;5035838;28;20052;-50
2021/10/21 07:44:09;;;;;;;13.80;5.10;;;;;;;18.79;55.41;98797.63;5053697;28;20434;-50
2021/10/21 07:46:35;;;;;;;14.20;4.50;;;;;;;18.61;55.21;98793.44;5035715;28;20053;-50
2021/10/21 07:49:04;;;;;;;23.85;5.65;;;;;;;18.36;55.76;98805.41;5053557;28;20641;-51
2021/10/21 07:51:31;;;;;;;17.77;5.75;;;;;;;18.19;55.99;98809.97;5053597;28;20021;-51
2021/10/21 07:53:58;;;;;;;14.07;5.45;;;;;;;18.08;56.05;98817.03;5053435;28;20036;-51
2021/10/21 07:56:25;;;;;;;18.15;6.20;;;;;;;18.03;56.53;98819.59;5053400;28;20024;-50
2021/10/21 07:58:51;;;;;;;11.02;3.33;;;;;;;18.02;56.61;98816.16;5053360;28;20039;-51
2021/10/21 08:01:17;;;;;;;12.85;4.35;;;;;;;17.99;57.40;98815.81;5053328;28;20431;-51
2021/10/21 08:03:43;;;;;;;20.35;5.03;;;;;;;18.04;57.41;98806.09;5053310;28;20028;-51
2021/10/21 08:06:09;;;;;;;14.25;3.22;;;;;;;18.00;57.58;98812.94;5053192;28;20025;-51
2021/10/21 08:08:34;;;;;;;15.63;4.90;;;;;;;18.02;56.92;98816.16;5053174;28;20441;-51
2021/10/21 08:11:00;;;;;;;16.13;5.15;;;;;;;17.98;56.78;98814.22;5053134;28;20490;-51
2021/10/21 08:13:26;;;;;;;14.27;2.90;;;;;;;17.94;57.60;98813.91;5053055;28;20035;-51
2021/10/21 08:15:52;;;;;;;13.82;3.20;;;;;;;18.06;57.10;98825.22;5053107;28;20017;-51
2021/10/21 08:18:18;;;;;;;22.23;4.90;;;;;;;18.20;56.54;98819.56;5053052;28;20112;-51
2021/10/21 08:20:44;;;;;;;16.52;5.38;;;;;;;18.42;56.52;98816.91;5052890;28;20100;-51
2021/10/21 08:23:11;;;;;;;19.90;4.60;;;;;;;18.46;56.03;98821.47;5052908;28;20024;-52
2021/10/21 08:25:38;;;;;;;15.90;4.65;;;;;;;18.14;56.26;98824.81;5052685;28;20049;-51
2021/10/21 08:28:05;;;;;;;18.08;4.22;;;;;;;17.96;56.99;98819.78;5052889;28;20047;-50
2021/10/21 08:30:33;;;;;;;20.17;6.90;;;;;;;18.15;57.47;98826.41;5034780;28;20025;-51
2021/10/21 08:33:00;;;;;;;14.68;6.38;;;;;;;18.36;56.94;98824.00;5052747;28;20114;-51
2021/10/21 08:35:31;;;;;;;19.73;8.27;;;;;;;18.66;56.46;98822.75;5052939;28;20079;-50
2021/10/21 08:38:02;;;;;;;17.85;6.57;;;;;;;19.21;54.47;98820.91;5034771;28;20471;-50
2021/10/21 08:40:33;;;;;;;14.25;4.35;;;;;;;19.66;51.40;98817.81;5052547;28;20031;-48
2021/10/21 08:43:01;;;;;;;14.02;4.65;;;;;;;20.02;51.04;98818.03;5034612;28;20053;-48
2021/10/21 08:45:27;;;;;;;16.00;4.13;;;;;;;20.34;49.31;98817.09;5052505;28;20087;-48
2021/10/21 08:48:01;;;;;;;18.77;5.72;;;;;;;20.43;49.81;98814.75;5052384;28;20024;-49
2021/10/21 08:50:37;;;;;;;12.57;5.10;;;;;;;20.74;49.87;98818.31;5052193;28;20099;-49
2021/10/21 08:53:05;;;;;;;23.17;6.18;;;;;;;21.09;50.13;98814.91;5052403;28;20548;-48
2021/10/21 08:55:31;;;;;;;32.88;10.13;;;;;;;21.35;50.47;98821.06;5052326;28;20091;-49
2021/10/21 08:57:57;;;;;;;34.67;10.85;;;;;;;21.78;49.86;98817.28;5050946;28;20028;-49
2021/10/21 09:00:22;;;;;;;16.02;4.88;;;;;;;22.14;48.48;98815.31;5052219;28;20029;-49
2021/10/21 09:02:52;;;;;;;18.50;4.72;;;;;;;22.42;48.50;98805.88;5034281;28;20017;-49
2021/10/21 09:08:13;;;;;;;19.75;5.28;;;;;;;22.78;47.89;98808.34;5052122;28;20025;-49
2021/10/21 09:10:48;;;;;;;19.00;4.22;;;;;;;22.97;47.18;98791.63;5051942;28;20037;-49
2021/10/21 09:13:28;;;;;;;15.63;3.22;;;;;;;23.12;46.16;98794.22;5050755;28;20025;-48
2021/10/21 09:15:57;;;;;;;16.50;3.10;;;;;;;23.52;43.28;98785.03;5034095;28;20392;-49
2021/10/21 09:18:25;;;;;;;18.98;3.65;;;;;;;24.78;40.58;98786.75;5050610;28;20132;-49
2021/10/21 09:20:51;;;;;;;11.27;3.70;;;;;;;25.99;36.75;98787.66;5051891;28;20033;-49
2021/10/21 09:23:27;;;;;;;11.02;2.67;;;;;;;26.98;36.06;98787.16;5051907;28;20025;-49
2021/10/21 09:25:53;;;;;;;9.73;3.33;;;;;;;27.91;33.59;98788.31;5051766;28;20025;-49
2021/10/21 09:28:23;;;;;;;15.63;3.20;;;;;;;28.62;32.08;98786.25;5051743;28;20029;-49
2021/10/21 09:31:05;;;;;;;11.20;2.95;;;;;;;28.93;30.14;98779.09;5052033;28;20082;-50
2021/10/21 09:33:56;;;;;;;6.80;2.38;;;;;;;29.64;30.07;98781.31;5033883;28;20091;-49
2021/10/21 09:36:26;;;;;;;10.23;2.22;;;;;;;30.56;27.59;98782.59;5051144;28;20495;-49
2021/10/21 09:38:57;;;;;;;10.63;2.70;;;;;;;30.83;26.36;98765.81;5051669;28;20049;-49
2021/10/21 09:41:26;;;;;;;8.73;2.33;;;;;;;30.95;24.56;98769.69;5051662;28;20025;-49
2021/10/21 09:43:52;;;;;;;10.43;2.75;;;;;;;31.11;23.71;98767.16;5051618;28;20028;-50
2021/10/21 09:46:50;;;;;;;13.35;3.15;;;;;;;31.28;24.47;98769.69;5051563;28;20036;-50
2021/10/21 09:49:36;;;;;;;11.20;2.83;;;;;;;31.73;23.60;98757.97;5017756;28;20060;-50
2021/10/21 09:52:03;;;;;;;15.25;3.45;;;;;;;32.59;22.23;98760.59;5051640;28;20923;-49
2021/10/21 09:54:32;;;;;;;9.85;3.22;;;;;;;32.95;21.70;98761.59;5033664;28;20029;-49
2021/10/21 09:57:05;;;;;;;12.73;2.63;;;;;;;33.03;20.87;98762.56;5051556;28;20399;-50
2021/10/21 09:59:35;;;;;;;7.78;2.20;;;;;;;32.94;20.34;98765.47;5050197;28;20025;-49
2021/10/21 10:02:23;;;;;;;8.43;2.33;;;;;;;32.65;20.26;98763.88;5051477;28;20434;-49
2021/10/21 10:04:53;;;;;;;8.77;2.75;;;;;;;32.25;20.49;98762.72;5051799;28;20028;-50
2021/10/21 10:07:23;;;;;;;9.88;2.53;;;;;;;31.92;20.68;98756.66;5051742;28;20032;-49
2021/10/21 10:09:49;;;;;;;13.43;2.33;;;;;;;31.48;21.79;98772.69;5051416;28;20393;-49
2021/10/21 10:12:16;;;;;;;7.80;2.33;;;;;;;31.21;21.60;98764.00;5051418;28;20070;-50
2021/10/21 10:14:46;;;;;;;9.93;2.53;;;;;;;31.41;22.16;98773.19;5033480;28;20100;-49
2021/10/21 10:17:18;;;;;;;10.02;2.85;;;;;;;31.44;23.25;98767.94;5033409;28;20032;-49
2021/10/21 10:19:47;;;;;;;13.05;3.78;;;;;;;31.52;23.37;98768.94;5051396;28;20035;-48
2021/10/21 10:22:24;;;;;;;12.85;4.53;;;;;;;31.68;23.14;98760.16;5051313;28;20071;-49
2021/10/21 10:24:50;;;;;;;8.65;3.03;;;;;;;31.29;22.79;98781.31;5051428;28;20487;-49
2021/10/21 10:27:29;;;;;;;7.40;2.50;;;;;;;31.22;22.12;98776.44;5051243;28;20391;-49
2021/10/21 10:30:01;;;;;;;5.95;2.20;;;;;;;31.50;22.23;98776.63;5033427;28;20025;-50
2021/10/21 10:32:43;;;;;;;6.85;2.17;;;;;;;32.06;22.13;98786.97;5051497;28;20372;-50
2021/10/21 10:35:32;;;;;;;9.98;2.70;;;;;;;32.35;21.65;98776.97;5051224;28;20025;-49
2021/10/21 10:38:01;;;;;;;9.13;2.95;;;;;;;32.88;19.84;98783.16;5033336;28;20108;-49
2021/10/21 10:40:46;;;;;;;9.13;3.00;;;;;;;33.00;19.86;98782.28;5051053;28;20043;-50
2021/10/21 10:43:17;;;;;;;9.68;2.72;;;;;;;33.01;19.65;98775.72;5051092;28;20631;-49
2021/10/21 10:45:51;;;;;;;13.73;4.70;;;;;;;32.99;20.25;98778.78;5051112;28;20042;-50
2021/10/21 10:48:53;;;;;;;10.45;3.28;;;;;;;32.85;20.15;98767.53;5053285;28;20426;-50
2021/10/21 10:51:58;;;;;;;9.88;4.50;;;;;;;32.70;20.69;98762.84;5054707;28;20057;-49
2021/10/21 10:55:00;;;;;;;11.50;3.88;;;;;;;32.77;19.67;98763.03;5054572;28;20025;-49
2021/10/21 10:57:26;;;;;;;12.20;4.40;;;;;;;32.57;19.75;98762.88;5054575;28;20025;-50
2021/10/21 10:59:54;;;;;;;9.02;4.50;;;;;;;31.81;20.42;98757.09;5054496;28;20028;-48
2021/10/21 11:02:24;;;;;;;15.93;4.43;;;;;;;30.97;21.50;98762.84;5036584;28;20029;-49
2021/10/21 11:04:53;;;;;;;9.00;2.58;;;;;;;31.05;21.05;98764.66;5054471;28;20033;-50
2021/10/21 11:07:41;;;;;;;10.75;3.45;;;;;;;30.98;21.50;98755.47;5036355;28;20385;-50
2021/10/21 11:10:16;;;;;;;11.63;5.60;;;;;;;30.87;21.53;98757.81;5043492;28;20033;-50
2021/10/21 11:12:42;;;;;;;21.65;4.47;;;;;;;30.19;22.42;98761.50;5052946;28;20125;-49
2021/10/21 11:15:30;;;;;;;10.93;2.50;;;;;;;29.24;24.00;98766.19;5054194;28;20033;-50
2021/10/21 11:17:57;;;;;;;14.73;3.25;;;;;;;28.55;24.90;98763.53;5054228;28;20017;-49
2021/10/21 11:20:31;;;;;;;11.30;2.60;;;;;;;28.00;25.49;98759.47;5054144;28;20032;-49
2021/10/21 11:23:29;;;;;;;11.48;2.67;;;;;;;27.22;26.51;98766.06;5054126;28;20029;-49
2021/10/21 11:26:00;;;;;;;26.75;4.75;;;;;;;26.59;27.42;98757.09;5043493;28;20155;-48
2021/10/21 11:28:27;;;;;;;12.30;3.55;;;;;;;26.47;27.91;98754.91;5054132;28;20033;-48
2021/10/21 11:30:53;;;;;;;17.88;3.65;;;;;;;26.17;28.10;98750.97;5053870;28;20021;-48
2021/10/21 11:33:19;;;;;;;12.98;4.45;;;;;;;25.85;28.59;98751.88;5053870;28;20407;-48
2021/10/21 11:35:48;;;;;;;17.10;3.80;;;;;;;25.74;28.80;98750.50;5053823;28;20025;-48